Time;durP1;ratioP1;P1;durP2;ratioP2;P2;SDS_P1;SDS_P2;PMS_P1;PMS_P2;Temp;Humidity;BMP_temperature;BMP_pressure;BME280_temperature;BME280_humidity;BME280_pressure;Samples;Min_cycle;Max_cycle;Signal;HPM_P1;HPM_P2
2022/09/15 00:00:06;;;;;;;17.37;12.37;;;;;;;;;;5309041;28;20457;-67
2022/09/15 00:02:37;;;;;;;14.25;11.25;;;;;;;;;;5309545;28;20274;-68
2022/09/15 00:05:09;;;;;;;12.68;10.35;;;;;;;;;;5310091;28;20016;-68
2022/09/15 00:07:40;;;;;;;16.17;11.38;;;;;;;;;;5308421;28;20039;-68
2022/09/15 00:10:12;;;;;;;19.20;10.95;;;;;;;;;;5309873;28;20434;-68
2022/09/15 00:12:43;;;;;;;15.95;11.25;;;;;;;;;;5308941;28;20052;-68
2022/09/15 00:15:16;;;;;;;15.98;11.75;;;;;;;;;;5309083;28;20032;-68
2022/09/15 00:17:48;;;;;;;16.40;11.98;;;;;;;;;;5309321;28;20016;-68
2022/09/15 00:20:20;;;;;;;14.20;11.25;;;;;;;;;;5309861;28;20024;-68
2022/09/15 00:22:51;;;;;;;14.73;11.48;;;;;;;;;;5308184;28;20046;-68
2022/09/15 00:25:22;;;;;;;16.48;12.23;;;;;;;;;;5309856;28;20027;-68
2022/09/15 00:27:54;;;;;;;18.25;12.45;;;;;;;;;;5308365;28;20270;-68
2022/09/15 00:30:25;;;;;;;17.88;12.65;;;;;;;;;;5309221;28;20298;-68
2022/09/15 00:32:56;;;;;;;21.27;13.80;;;;;;;;;;5309398;28;20273;-68
2022/09/15 00:35:27;;;;;;;17.63;13.27;;;;;;;;;;5308482;28;20065;-67
2022/09/15 00:37:58;;;;;;;18.88;13.35;;;;;;;;;;5309390;28;20817;-68
2022/09/15 00:40:29;;;;;;;21.65;13.38;;;;;;;;;;5308930;28;20352;-68
2022/09/15 00:43:01;;;;;;;14.55;13.02;;;;;;;;;;5308727;28;20258;-68
2022/09/15 00:45:32;;;;;;;19.60;13.25;;;;;;;;;;5308872;28;20270;-68
2022/09/15 00:48:04;;;;;;;18.58;12.93;;;;;;;;;;5309035;28;20156;-68
2022/09/15 00:50:36;;;;;;;20.48;14.00;;;;;;;;;;5307890;28;20274;-68
2022/09/15 00:53:09;;;;;;;20.05;13.38;;;;;;;;;;5309387;27;20072;-68
2022/09/15 00:55:43;;;;;;;25.45;14.88;;;;;;;;;;5308718;28;20363;-68
2022/09/15 00:58:26;;;;;;;22.58;14.18;;;;;;;;;;5308456;28;20028;-68
2022/09/15 01:00:59;;;;;;;18.75;13.75;;;;;;;;;;5309494;28;20031;-68
2022/09/15 01:03:32;;;;;;;19.85;13.90;;;;;;;;;;5307977;28;20016;-68
2022/09/15 01:06:07;;;;;;;15.35;12.55;;;;;;;;;;5309332;28;20139;-68
2022/09/15 01:08:41;;;;;;;23.58;14.00;;;;;;;;;;5308070;28;20450;-68
2022/09/15 01:11:15;;;;;;;21.73;14.35;;;;;;;;;;5304368;28;20099;-68
2022/09/15 01:13:46;;;;;;;19.70;13.70;;;;;;;;;;5305299;28;20032;-68
2022/09/15 01:16:18;;;;;;;19.65;13.20;;;;;;;;;;5305790;28;20045;-68
2022/09/15 01:19:04;;;;;;;18.48;13.35;;;;;;;;;;5304529;28;20748;-68
2022/09/15 01:21:40;;;;;;;24.10;14.50;;;;;;;;;;5304961;28;20032;-67
2022/09/15 01:24:11;;;;;;;20.55;13.38;;;;;;;;;;5304973;28;20371;-68
2022/09/15 01:26:51;;;;;;;21.50;14.43;;;;;;;;;;5304952;28;20020;-69
2022/09/15 01:29:37;;;;;;;19.02;14.25;;;;;;;;;;5305567;28;20020;-67
2022/09/15 01:35:07;;;;;;;22.10;14.02;;;;;;;;;;5305539;28;20036;-69
2022/09/15 01:37:41;;;;;;;19.73;13.55;;;;;;;;;;5304954;28;20008;-68
2022/09/15 01:40:13;;;;;;;16.77;14.23;;;;;;;;;;5304604;28;20262;-68
2022/09/15 01:42:46;;;;;;;17.92;14.63;;;;;;;;;;5305086;28;20107;-68
2022/09/15 01:45:20;;;;;;;19.38;13.75;;;;;;;;;;5304671;28;20024;-67
2022/09/15 01:47:53;;;;;;;22.50;12.90;;;;;;;;;;5304563;28;20101;-68
2022/09/15 01:50:26;;;;;;;17.70;13.57;;;;;;;;;;5304925;28;20102;-68
2022/09/15 01:53:00;;;;;;;18.83;13.32;;;;;;;;;;5304661;28;20051;-67
2022/09/15 01:55:37;;;;;;;16.95;13.52;;;;;;;;;;5304408;28;20028;-67
2022/09/15 01:58:08;;;;;;;17.05;12.45;;;;;;;;;;5305193;28;20020;-67
2022/09/15 02:00:46;;;;;;;19.00;13.95;;;;;;;;;;5303710;28;20016;-67
2022/09/15 02:03:20;;;;;;;17.52;13.57;;;;;;;;;;5305019;28;20055;-67
2022/09/15 02:05:53;;;;;;;19.33;13.98;;;;;;;;;;5304520;28;20016;-67
2022/09/15 02:08:32;;;;;;;19.20;13.00;;;;;;;;;;5303870;28;20088;-66
2022/09/15 02:11:06;;;;;;;24.73;14.02;;;;;;;;;;5304908;28;20023;-67
2022/09/15 02:13:48;;;;;;;20.00;14.75;;;;;;;;;;5303252;28;20463;-67
2022/09/15 02:16:21;;;;;;;15.73;13.48;;;;;;;;;;5305073;28;20102;-67
2022/09/15 02:19:09;;;;;;;19.50;13.55;;;;;;;;;;5304669;28;20410;-67
2022/09/15 02:21:40;;;;;;;19.45;14.05;;;;;;;;;;5303185;28;20475;-67
2022/09/15 02:24:17;;;;;;;17.90;13.75;;;;;;;;;;5304757;28;20026;-67
2022/09/15 02:26:50;;;;;;;22.77;14.68;;;;;;;;;;5304008;28;20024;-67
2022/09/15 02:29:25;;;;;;;18.08;13.65;;;;;;;;;;5303780;28;20085;-67
2022/09/15 02:31:58;;;;;;;16.73;13.48;;;;;;;;;;5304259;28;20070;-67
2022/09/15 02:34:31;;;;;;;17.80;13.63;;;;;;;;;;5302867;28;20024;-67
2022/09/15 02:37:03;;;;;;;17.33;14.38;;;;;;;;;;5304287;28;20008;-66
2022/09/15 02:39:36;;;;;;;15.27;12.70;;;;;;;;;;5303711;28;20020;-66
2022/09/15 02:42:08;;;;;;;16.73;12.48;;;;;;;;;;5303381;28;20016;-66
2022/09/15 02:44:40;;;;;;;16.85;13.77;;;;;;;;;;5303613;28;20379;-66
2022/09/15 02:47:12;;;;;;;18.65;13.60;;;;;;;;;;5304141;28;20036;-67
2022/09/15 02:49:43;;;;;;;18.85;13.43;;;;;;;;;;5302987;28;20020;-67
2022/09/15 02:52:14;;;;;;;19.27;13.17;;;;;;;;;;5304192;28;20021;-67
2022/09/15 02:54:46;;;;;;;18.00;13.55;;;;;;;;;;5303302;28;20385;-66
2022/09/15 02:57:17;;;;;;;15.68;13.23;;;;;;;;;;5303176;28;20008;-67
2022/09/15 03:02:38;;;;;;;18.58;14.15;;;;;;;;;;5302475;28;20271;-67
2022/09/15 03:05:10;;;;;;;18.17;13.93;;;;;;;;;;5303788;28;20043;-67
2022/09/15 03:07:42;;;;;;;20.02;15.15;;;;;;;;;;5303069;28;20024;-66
2022/09/15 03:10:13;;;;;;;17.63;14.15;;;;;;;;;;5303066;28;20024;-66
2022/09/15 03:12:48;;;;;;;18.85;15.23;;;;;;;;;;5303188;28;20508;-66
2022/09/15 03:15:22;;;;;;;21.65;14.68;;;;;;;;;;5303623;28;20024;-66
2022/09/15 03:17:53;;;;;;;18.15;14.88;;;;;;;;;;5302144;28;20020;-67
2022/09/15 03:20:29;;;;;;;18.50;14.15;;;;;;;;;;5303172;28;20144;-67
2022/09/15 03:23:02;;;;;;;19.70;14.00;;;;;;;;;;5303440;28;20112;-67
2022/09/15 03:25:33;;;;;;;19.42;15.10;;;;;;;;;;5302027;28;20095;-67
2022/09/15 03:28:04;;;;;;;18.27;14.63;;;;;;;;;;5303186;28;20120;-67
2022/09/15 03:30:35;;;;;;;20.58;14.85;;;;;;;;;;5302610;28;20625;-67
2022/09/15 03:33:06;;;;;;;18.07;15.07;;;;;;;;;;5302138;28;20625;-67
2022/09/15 03:35:38;;;;;;;21.77;15.15;;;;;;;;;;5302653;28;20629;-67
2022/09/15 03:38:09;;;;;;;19.88;15.50;;;;;;;;;;5302454;28;20355;-67
2022/09/15 03:40:41;;;;;;;18.75;13.82;;;;;;;;;;5302646;28;20775;-67
2022/09/15 03:43:13;;;;;;;18.15;14.07;;;;;;;;;;5303139;28;20613;-67
2022/09/15 03:45:44;;;;;;;16.70;14.05;;;;;;;;;;5301914;28;20401;-67
2022/09/15 03:48:16;;;;;;;18.90;13.15;;;;;;;;;;5303026;28;20044;-66
2022/09/15 03:50:47;;;;;;;18.88;14.85;;;;;;;;;;5302562;28;20752;-67
2022/09/15 03:53:19;;;;;;;22.08;15.60;;;;;;;;;;5302181;28;20023;-67
2022/09/15 03:55:50;;;;;;;21.30;15.27;;;;;;;;;;5302392;28;20015;-67
2022/09/15 03:58:21;;;;;;;19.80;14.32;;;;;;;;;;5303021;28;20019;-68
2022/09/15 04:00:52;;;;;;;23.60;14.77;;;;;;;;;;5301727;28;20475;-68
2022/09/15 04:03:24;;;;;;;16.50;13.00;;;;;;;;;;5302630;28;20077;-68
2022/09/15 04:05:55;;;;;;;25.73;13.88;;;;;;;;;;5301925;28;20020;-68
2022/09/15 04:08:26;;;;;;;16.77;14.35;;;;;;;;;;5302388;28;20028;-68
2022/09/15 04:10:59;;;;;;;18.92;14.07;;;;;;;;;;5302997;28;20305;-68
2022/09/15 04:13:30;;;;;;;14.80;13.23;;;;;;;;;;5301504;28;20632;-67
2022/09/15 04:16:06;;;;;;;15.95;14.32;;;;;;;;;;5302928;28;20106;-67
2022/09/15 04:18:38;;;;;;;16.10;14.15;;;;;;;;;;5302139;28;20023;-68
2022/09/15 04:21:11;;;;;;;19.50;14.75;;;;;;;;;;5302227;28;20020;-68
2022/09/15 04:23:43;;;;;;;16.15;14.38;;;;;;;;;;5302015;28;20019;-68
2022/09/15 04:26:17;;;;;;;19.15;13.13;;;;;;;;;;5302691;28;20024;-67
2022/09/15 04:28:48;;;;;;;16.80;13.75;;;;;;;;;;5301238;28;20028;-68
2022/09/15 04:31:19;;;;;;;18.35;14.02;;;;;;;;;;5302582;28;20016;-68
2022/09/15 04:33:51;;;;;;;15.38;13.63;;;;;;;;;;5301903;28;20028;-68
2022/09/15 04:36:24;;;;;;;13.88;12.40;;;;;;;;;;5301972;28;20044;-67
2022/09/15 04:38:57;;;;;;;15.60;13.95;;;;;;;;;;5302305;28;20107;-67
2022/09/15 04:41:28;;;;;;;14.82;13.32;;;;;;;;;;5301147;28;20414;-68
2022/09/15 04:43:59;;;;;;;15.38;13.73;;;;;;;;;;5302717;28;20020;-68
2022/09/15 04:46:30;;;;;;;17.48;13.70;;;;;;;;;;5305786;28;20381;-68
2022/09/15 04:49:02;;;;;;;16.77;13.35;;;;;;;;;;5305711;28;20452;-68
2022/09/15 04:51:34;;;;;;;18.60;13.85;;;;;;;;;;5305683;28;20048;-69
2022/09/15 04:54:06;;;;;;;18.13;13.57;;;;;;;;;;5306232;28;20032;-68
2022/09/15 04:56:38;;;;;;;16.65;13.27;;;;;;;;;;5305135;28;20524;-68
2022/09/15 04:59:12;;;;;;;17.38;13.70;;;;;;;;;;5306328;28;20016;-68
2022/09/15 05:01:44;;;;;;;23.02;14.48;;;;;;;;;;5305666;28;20487;-68
2022/09/15 05:04:15;;;;;;;15.02;13.23;;;;;;;;;;5305344;28;20023;-68
2022/09/15 05:06:46;;;;;;;20.35;13.55;;;;;;;;;;5305707;28;20020;-68
2022/09/15 05:09:18;;;;;;;18.90;14.03;;;;;;;;;;5305116;28;20261;-68
2022/09/15 05:11:49;;;;;;;20.92;15.20;;;;;;;;;;5305371;28;20741;-68
2022/09/15 05:14:20;;;;;;;19.80;15.38;;;;;;;;;;5305993;28;20056;-68
2022/09/15 05:16:51;;;;;;;19.73;14.23;;;;;;;;;;5304434;28;20103;-68
2022/09/15 05:19:22;;;;;;;20.80;14.00;;;;;;;;;;5306086;28;20279;-68
2022/09/15 05:21:53;;;;;;;21.30;14.27;;;;;;;;;;5305306;28;20055;-68
2022/09/15 05:24:25;;;;;;;18.20;14.60;;;;;;;;;;5304718;28;20277;-68
2022/09/15 05:26:56;;;;;;;19.60;15.57;;;;;;;;;;5305432;28;20012;-68
2022/09/15 05:29:27;;;;;;;16.88;13.40;;;;;;;;;;5304994;28;20544;-69
2022/09/15 05:31:58;;;;;;;17.73;14.57;;;;;;;;;;5304885;28;20020;-68
2022/09/15 05:34:29;;;;;;;16.65;14.98;;;;;;;;;;5304976;28;20286;-69
2022/09/15 05:37:01;;;;;;;17.17;14.25;;;;;;;;;;5305428;28;20262;-68
2022/09/15 05:39:32;;;;;;;18.67;14.23;;;;;;;;;;5303998;28;20285;-68
2022/09/15 05:42:03;;;;;;;21.70;14.40;;;;;;;;;;5305341;28;20466;-67
2022/09/15 05:44:34;;;;;;;22.15;14.30;;;;;;;;;;5303937;28;20270;-68
2022/09/15 05:47:05;;;;;;;16.58;14.30;;;;;;;;;;5304941;28;20079;-67
2022/09/15 05:49:36;;;;;;;20.17;14.70;;;;;;;;;;5304428;28;20509;-68
2022/09/15 05:52:09;;;;;;;18.27;14.88;;;;;;;;;;5304138;28;20290;-67
2022/09/15 05:54:40;;;;;;;17.48;13.63;;;;;;;;;;5304527;28;20127;-68
2022/09/15 05:57:11;;;;;;;18.23;14.93;;;;;;;;;;5304658;28;20390;-68
2022/09/15 05:59:42;;;;;;;18.02;14.13;;;;;;;;;;5303641;28;20277;-68
2022/09/15 06:02:14;;;;;;;20.42;14.70;;;;;;;;;;5304887;28;20666;-69
2022/09/15 06:04:45;;;;;;;18.95;15.25;;;;;;;;;;5304229;28;20115;-68
2022/09/15 06:07:16;;;;;;;16.40;14.70;;;;;;;;;;5303934;28;20020;-68
2022/09/15 06:09:47;;;;;;;16.88;13.98;;;;;;;;;;5304318;28;20830;-67
2022/09/15 06:12:18;;;;;;;16.23;14.55;;;;;;;;;;5304808;28;20027;-67
2022/09/15 06:14:51;;;;;;;16.13;13.52;;;;;;;;;;5303381;28;20290;-67
2022/09/15 06:17:22;;;;;;;17.83;14.25;;;;;;;;;;5304575;28;20031;-67
2022/09/15 06:19:55;;;;;;;16.10;14.40;;;;;;;;;;5303116;28;20393;-67
2022/09/15 06:22:26;;;;;;;19.48;14.27;;;;;;;;;;5304038;28;20307;-67
2022/09/15 06:24:58;;;;;;;16.57;13.30;;;;;;;;;;5304490;28;20020;-67
2022/09/15 06:27:29;;;;;;;18.95;15.40;;;;;;;;;;5303139;28;20254;-67
2022/09/15 06:30:01;;;;;;;18.70;14.88;;;;;;;;;;5304408;28;20028;-67
2022/09/15 06:32:32;;;;;;;21.75;14.82;;;;;;;;;;5303685;28;20016;-67
2022/09/15 06:35:05;;;;;;;15.38;13.70;;;;;;;;;;5303623;28;20556;-67
2022/09/15 06:37:37;;;;;;;25.00;14.55;;;;;;;;;;5303648;28;20024;-68
2022/09/15 06:40:08;;;;;;;18.63;14.67;;;;;;;;;;5304098;28;20008;-68
2022/09/15 06:42:40;;;;;;;17.33;12.98;;;;;;;;;;5302885;28;20273;-67
2022/09/15 06:45:11;;;;;;;15.63;13.27;;;;;;;;;;5303882;28;20024;-67
2022/09/15 06:47:42;;;;;;;17.27;14.02;;;;;;;;;;5302494;28;20822;-67
2022/09/15 06:50:13;;;;;;;15.10;13.57;;;;;;;;;;5304062;28;20023;-67
2022/09/15 06:52:44;;;;;;;17.38;12.63;;;;;;;;;;5303340;28;20269;-67
2022/09/15 06:55:15;;;;;;;19.33;13.60;;;;;;;;;;5302864;28;20471;-67
2022/09/15 06:57:48;;;;;;;15.85;13.93;;;;;;;;;;5303342;28;20752;-67
2022/09/15 07:00:19;;;;;;;15.15;12.60;;;;;;;;;;5303926;28;20277;-67
2022/09/15 07:02:50;;;;;;;19.15;12.95;;;;;;;;;;5302469;28;20008;-67
2022/09/15 07:05:24;;;;;;;18.23;14.10;;;;;;;;;;5314173;28;20053;-67
2022/09/15 07:07:55;;;;;;;19.45;12.77;;;;;;;;;;5323336;28;20258;-67
2022/09/15 07:10:26;;;;;;;15.68;13.50;;;;;;;;;;5322792;28;20035;-67
2022/09/15 07:13:00;;;;;;;16.27;12.90;;;;;;;;;;5324782;28;20321;-67
2022/09/15 07:15:31;;;;;;;17.13;12.18;;;;;;;;;;5323951;28;20035;-67
2022/09/15 07:18:02;;;;;;;15.15;11.65;;;;;;;;;;5324082;28;20091;-67
2022/09/15 07:20:37;;;;;;;17.48;12.45;;;;;;;;;;5324302;28;20086;-67
2022/09/15 07:23:08;;;;;;;15.95;13.57;;;;;;;;;;5323906;28;20477;-68
2022/09/15 07:25:43;;;;;;;13.60;12.15;;;;;;;;;;5324032;28;20020;-67
2022/09/15 07:28:15;;;;;;;15.05;11.70;;;;;;;;;;5324485;28;20020;-66
2022/09/15 07:30:49;;;;;;;12.07;10.90;;;;;;;;;;5323486;28;20020;-68
2022/09/15 07:33:20;;;;;;;15.32;10.38;;;;;;;;;;5324471;28;20106;-67
2022/09/15 07:35:51;;;;;;;18.40;10.63;;;;;;;;;;5324021;28;20098;-68
2022/09/15 07:38:22;;;;;;;13.07;11.60;;;;;;;;;;5323490;28;20261;-68
2022/09/15 07:40:54;;;;;;;15.00;10.15;;;;;;;;;;5323696;28;20019;-67
2022/09/15 07:43:25;;;;;;;14.47;10.40;;;;;;;;;;5324152;28;20363;-68
2022/09/15 07:45:57;;;;;;;13.30;9.13;;;;;;;;;;5323695;28;20273;-67
2022/09/15 07:48:28;;;;;;;13.85;10.50;;;;;;;;;;5323615;28;20317;-68
2022/09/15 07:50:59;;;;;;;13.85;10.23;;;;;;;;;;5323138;28;20045;-67
2022/09/15 07:53:31;;;;;;;14.25;9.90;;;;;;;;;;5324085;28;20030;-67
2022/09/15 07:56:02;;;;;;;12.02;10.20;;;;;;;;;;5324596;28;20027;-67
2022/09/15 07:58:34;;;;;;;15.52;9.00;;;;;;;;;;5322831;28;20020;-67
2022/09/15 08:01:07;;;;;;;13.25;9.73;;;;;;;;;;5324193;28;20027;-68
2022/09/15 08:03:43;;;;;;;10.82;9.70;;;;;;;;;;5323491;28;20420;-68
2022/09/15 08:06:15;;;;;;;11.57;8.80;;;;;;;;;;5323477;28;20069;-68
2022/09/15 08:08:46;;;;;;;10.25;9.00;;;;;;;;;;5323648;28;20031;-66
2022/09/15 08:11:19;;;;;;;11.38;8.35;;;;;;;;;;5324231;28;20023;-66
2022/09/15 08:13:51;;;;;;;11.75;9.20;;;;;;;;;;5322549;28;20028;-67
2022/09/15 08:16:22;;;;;;;12.77;9.50;;;;;;;;;;5324687;28;20091;-69
2022/09/15 08:18:54;;;;;;;13.40;8.60;;;;;;;;;;5325252;28;20126;-69
2022/09/15 08:21:26;;;;;;;13.10;9.05;;;;;;;;;;5327022;28;20027;-67
2022/09/15 08:23:58;;;;;;;12.07;8.85;;;;;;;;;;5327811;28;20043;-67
2022/09/15 08:26:29;;;;;;;9.52;8.27;;;;;;;;;;5325266;28;20044;-67
2022/09/15 08:29:01;;;;;;;10.48;7.85;;;;;;;;;;5327914;28;20453;-67
2022/09/15 08:31:32;;;;;;;8.60;7.45;;;;;;;;;;5327549;28;20015;-67
2022/09/15 08:34:05;;;;;;;8.63;7.40;;;;;;;;;;5327340;28;20038;-65
2022/09/15 08:36:37;;;;;;;15.00;6.88;;;;;;;;;;5327316;28;20262;-66
2022/09/15 08:39:08;;;;;;;10.43;7.63;;;;;;;;;;5327851;28;20022;-66
2022/09/15 08:41:44;;;;;;;10.90;6.25;;;;;;;;;;5326567;28;20020;-66
2022/09/15 08:44:21;;;;;;;11.52;6.15;;;;;;;;;;5327772;28;20436;-66
2022/09/15 08:46:58;;;;;;;12.98;6.70;;;;;;;;;;5326973;28;20043;-66
2022/09/15 08:49:36;;;;;;;12.88;6.63;;;;;;;;;;5326393;28;20028;-66
2022/09/15 08:52:12;;;;;;;12.18;6.60;;;;;;;;;;5327708;28;20023;-66
2022/09/15 08:54:43;;;;;;;7.88;6.38;;;;;;;;;;5326067;28;20028;-66
2022/09/15 08:57:17;;;;;;;13.15;6.60;;;;;;;;;;5327572;28;20041;-66
2022/09/15 08:59:49;;;;;;;7.55;6.28;;;;;;;;;;5326511;28;20285;-66
2022/09/15 09:02:21;;;;;;;10.60;6.70;;;;;;;;;;5326495;28;20018;-65
2022/09/15 09:04:56;;;;;;;12.45;7.30;;;;;;;;;;5326918;28;20024;-66
2022/09/15 09:07:27;;;;;;;13.05;7.13;;;;;;;;;;5326744;28;20500;-66
2022/09/15 09:10:05;;;;;;;11.35;6.32;;;;;;;;;;5326333;28;20027;-66
2022/09/15 09:12:52;;;;;;;11.80;6.77;;;;;;;;;;5326772;28;20015;-66
2022/09/15 09:15:27;;;;;;;12.38;7.35;;;;;;;;;;5325920;28;20028;-66
2022/09/15 09:18:04;;;;;;;8.55;5.65;;;;;;;;;;5326897;28;20051;-66
2022/09/15 09:20:43;;;;;;;8.00;5.82;;;;;;;;;;5326286;28;20016;-66
2022/09/15 09:23:16;;;;;;;8.48;5.22;;;;;;;;;;5326310;28;20110;-66
2022/09/15 09:25:48;;;;;;;10.90;4.03;;;;;;;;;;5326207;28;20024;-66
2022/09/15 09:28:36;;;;;;;7.18;3.05;;;;;;;;;;5326856;28;20076;-66
2022/09/15 09:31:14;;;;;;;8.20;3.00;;;;;;;;;;5324968;28;20027;-66
2022/09/15 09:33:50;;;;;;;8.80;2.70;;;;;;;;;;5326073;28;20036;-66
2022/09/15 09:36:22;;;;;;;4.85;2.00;;;;;;;;;;5326871;28;20019;-66
2022/09/15 09:38:54;;;;;;;5.85;1.77;;;;;;;;;;5325183;28;20064;-67
2022/09/15 09:41:34;;;;;;;7.43;2.30;;;;;;;;;;5325795;28;20485;-68
2022/09/15 09:44:09;;;;;;;9.27;1.98;;;;;;;;;;5325604;28;20128;-66
2022/09/15 09:46:40;;;;;;;6.80;2.03;;;;;;;;;;5325748;28;20442;-66
2022/09/15 09:49:24;;;;;;;9.80;1.95;;;;;;;;;;5325852;27;20107;-67
2022/09/15 09:51:58;;;;;;;4.32;1.90;;;;;;;;;;5325083;28;20126;-66
2022/09/15 09:54:31;;;;;;;6.90;2.20;;;;;;;;;;5325672;28;20033;-66
2022/09/15 09:57:11;;;;;;;6.35;2.55;;;;;;;;;;5326222;28;20373;-66
2022/09/15 09:59:43;;;;;;;9.10;2.72;;;;;;;;;;5324660;28;20054;-67
2022/09/15 10:02:27;;;;;;;6.47;2.30;;;;;;;;;;5326022;28;20019;-67
2022/09/15 10:05:01;;;;;;;9.65;3.28;;;;;;;;;;5325090;28;20016;-66
2022/09/15 10:07:33;;;;;;;7.78;3.92;;;;;;;;;;5325488;28;20039;-66
2022/09/15 10:10:04;;;;;;;9.52;4.00;;;;;;;;;;5325904;28;20076;-68
2022/09/15 10:12:39;;;;;;;8.15;3.60;;;;;;;;;;5324523;28;20026;-67
2022/09/15 10:15:26;;;;;;;7.45;4.10;;;;;;;;;;5325884;28;20063;-67
2022/09/15 10:17:58;;;;;;;8.57;3.90;;;;;;;;;;5325702;28;20019;-67
2022/09/15 10:20:58;;;;;;;6.97;3.78;;;;;;;;;;5324352;28;20072;-67
2022/09/15 10:23:30;;;;;;;5.25;2.10;;;;;;;;;;5311617;28;20394;-66
2022/09/15 10:26:13;;;;;;;6.95;2.00;;;;;;;;;;5325029;28;20023;-67
2022/09/15 10:29:04;;;;;;;5.05;2.20;;;;;;;;;;5324964;28;20015;-66
2022/09/15 10:31:36;;;;;;;8.13;2.53;;;;;;;;;;5324709;28;20099;-66
2022/09/15 10:34:22;;;;;;;4.40;1.47;;;;;;;;;;5324626;28;20489;-67
2022/09/15 10:36:58;;;;;;;8.98;1.50;;;;;;;;;;5324647;28;20260;-66
2022/09/15 10:39:33;;;;;;;5.93;1.00;;;;;;;;;;5324594;28;20015;-66
2022/09/15 10:42:04;;;;;;;9.45;1.10;;;;;;;;;;5324204;28;20019;-67
2022/09/15 10:44:57;;;;;;;2.95;0.80;;;;;;;;;;5324365;28;20023;-67
2022/09/15 10:47:35;;;;;;;4.82;0.60;;;;;;;;;;5323606;28;20058;-66
2022/09/15 10:50:06;;;;;;;6.88;0.50;;;;;;;;;;5324862;28;20016;-67
2022/09/15 10:53:03;;;;;;;3.92;0.50;;;;;;;;;;5324405;28;20035;-67
2022/09/15 10:55:40;;;;;;;4.82;0.77;;;;;;;;;;5323237;28;20107;-67
2022/09/15 10:58:19;;;;;;;3.35;0.60;;;;;;;;;;5324631;28;20031;-66
2022/09/15 11:01:09;;;;;;;3.95;0.50;;;;;;;;;;5323975;28;20015;-67
2022/09/15 11:03:43;;;;;;;4.70;0.50;;;;;;;;;;5324205;28;20031;-67
2022/09/15 11:06:23;;;;;;;7.60;0.82;;;;;;;;;;5324792;28;20024;-67
2022/09/15 11:08:54;;;;;;;3.10;0.60;;;;;;;;;;5323341;28;20019;-67
2022/09/15 11:11:33;;;;;;;3.75;0.57;;;;;;;;;;5324093;28;20019;-67
2022/09/15 11:14:29;;;;;;;3.28;1.05;;;;;;;;;;5324524;28;20301;-67
2022/09/15 11:17:06;;;;;;;3.20;0.40;;;;;;;;;;5323753;28;20077;-67
2022/09/15 11:19:46;;;;;;;3.00;0.40;;;;;;;;;;5324135;28;20022;-67
2022/09/15 11:22:27;;;;;;;2.30;0.30;;;;;;;;;;5323645;28;20012;-67
2022/09/15 11:25:01;;;;;;;2.88;0.30;;;;;;;;;;5324369;28;20030;-67
2022/09/15 11:27:34;;;;;;;3.03;0.38;;;;;;;;;;5323645;28;20027;-67
2022/09/15 11:30:25;;;;;;;4.88;0.30;;;;;;;;;;5323806;28;20026;-67
2022/09/15 11:33:02;;;;;;;2.78;0.20;;;;;;;;;;5324202;28;20020;-67
2022/09/15 11:35:33;;;;;;;3.40;0.28;;;;;;;;;;5323459;28;20073;-66
2022/09/15 11:38:17;;;;;;;3.03;0.30;;;;;;;;;;5323297;28;20066;-67
2022/09/15 11:40:58;;;;;;;3.67;0.30;;;;;;;;;;5323826;28;20065;-67
2022/09/15 11:43:35;;;;;;;1.42;0.20;;;;;;;;;;5322566;28;20016;-68
2022/09/15 11:46:29;;;;;;;3.58;0.32;;;;;;;;;;5324106;28;20020;-68
2022/09/15 11:49:01;;;;;;;3.42;0.70;;;;;;;;;;5324344;28;20074;-68
2022/09/15 11:51:37;;;;;;;4.93;0.30;;;;;;;;;;5322581;28;20047;-67
2022/09/15 11:54:12;;;;;;;15.15;1.23;;;;;;;;;;5323577;28;20332;-66
2022/09/15 11:56:45;;;;;;;7.13;0.30;;;;;;;;;;5323342;28;20529;-67
2022/09/15 11:59:35;;;;;;;9.98;0.43;;;;;;;;;;5323236;28;20491;-66
2022/09/15 12:02:16;;;;;;;4.40;0.20;;;;;;;;;;5323751;28;20106;-67
2022/09/15 12:04:57;;;;;;;2.65;0.30;;;;;;;;;;5322269;28;20015;-67
2022/09/15 12:07:31;;;;;;;6.40;0.40;;;;;;;;;;5323102;28;20031;-67
2022/09/15 12:10:04;;;;;;;5.15;0.40;;;;;;;;;;5323911;28;20007;-67
2022/09/15 12:12:37;;;;;;;6.82;0.30;;;;;;;;;;5322652;28;20020;-66
2022/09/15 12:15:16;;;;;;;5.80;0.30;;;;;;;;;;5323529;28;20020;-68
2022/09/15 12:17:47;;;;;;;;;;;;;;;;;;5323371;28;20020;-66
2022/09/15 12:20:27;;;;;;;3.42;0.22;;;;;;;;;;5322890;28;19911;-67
2022/09/15 12:23:03;;;;;;;4.40;0.73;;;;;;;;;;5323674;28;20018;-67
2022/09/15 12:25:40;;;;;;;3.10;0.30;;;;;;;;;;5322246;28;20070;-67
2022/09/15 12:28:31;;;;;;;3.80;0.20;;;;;;;;;;5323545;28;20194;-66
2022/09/15 12:31:11;;;;;;;4.32;0.65;;;;;;;;;;5322879;28;20023;-67
2022/09/15 12:33:53;;;;;;;5.25;0.38;;;;;;;;;;5322092;28;20463;-67
2022/09/15 12:36:30;;;;;;;3.88;0.30;;;;;;;;;;5323182;28;20035;-67
2022/09/15 12:39:04;;;;;;;4.25;0.30;;;;;;;;;;5323565;28;20107;-66
2022/09/15 12:41:35;;;;;;;3.92;0.30;;;;;;;;;;5322038;28;20413;-67
2022/09/15 12:44:19;;;;;;;2.40;0.27;;;;;;;;;;5323585;28;20023;-67
2022/09/15 12:46:52;;;;;;;2.28;0.20;;;;;;;;;;5321965;28;20284;-67
2022/09/15 12:49:28;;;;;;;3.75;0.73;;;;;;;;;;5323294;28;20051;-67
2022/09/15 12:52:01;;;;;;;3.95;0.40;;;;;;;;;;5323446;28;20011;-67
2022/09/15 12:54:33;;;;;;;5.53;0.30;;;;;;;;;;5321933;28;20364;-67
2022/09/15 12:57:06;;;;;;;4.65;0.30;;;;;;;;;;5323436;28;20094;-67
2022/09/15 12:59:38;;;;;;;2.15;0.30;;;;;;;;;;5322570;28;20089;-67
2022/09/15 13:02:29;;;;;;;3.95;0.40;;;;;;;;;;5322581;28;20016;-67
2022/09/15 13:05:00;;;;;;;3.92;0.73;;;;;;;;;;5312107;28;20719;-67
2022/09/15 13:07:33;;;;;;;3.90;0.57;;;;;;;;;;5325168;28;20022;-67
2022/09/15 13:10:07;;;;;;;2.58;0.30;;;;;;;;;;5327224;28;20676;-67
2022/09/15 13:12:41;;;;;;;4.97;0.30;;;;;;;;;;5326421;28;20099;-67
2022/09/15 13:15:14;;;;;;;3.30;0.32;;;;;;;;;;5326096;28;20023;-67
2022/09/15 13:17:46;;;;;;;2.75;0.22;;;;;;;;;;5326248;28;20016;-67
2022/09/15 13:20:22;;;;;;;1.95;0.30;;;;;;;;;;5326715;28;20069;-67
2022/09/15 13:22:55;;;;;;;4.68;0.30;;;;;;;;;;5325354;28;20018;-67
2022/09/15 13:25:27;;;;;;;3.55;0.30;;;;;;;;;;5326010;28;20027;-67
2022/09/15 13:28:00;;;;;;;1.58;0.30;;;;;;;;;;5326729;28;20544;-67
2022/09/15 13:30:37;;;;;;;3.47;0.25;;;;;;;;;;5325223;28;20023;-67
2022/09/15 13:33:20;;;;;;;2.25;0.20;;;;;;;;;;5325999;28;20115;-66
2022/09/15 13:35:51;;;;;;;3.55;0.28;;;;;;;;;;5325343;28;20046;-67
2022/09/15 13:38:41;;;;;;;3.90;0.30;;;;;;;;;;5326499;28;20020;-67
2022/09/15 13:41:32;;;;;;;4.60;0.30;;;;;;;;;;5326375;28;20269;-66
2022/09/15 13:44:22;;;;;;;2.10;0.57;;;;;;;;;;5325624;28;20035;-67
2022/09/15 13:47:12;;;;;;;1.95;0.30;;;;;;;;;;5325717;28;20375;-67
2022/09/15 13:49:54;;;;;;;5.60;0.30;;;;;;;;;;5325168;28;20026;-67
2022/09/15 13:52:34;;;;;;;3.22;0.25;;;;;;;;;;5325456;28;20016;-67
2022/09/15 13:55:25;;;;;;;9.00;0.60;;;;;;;;;;5326163;28;20031;-67
2022/09/15 13:57:57;;;;;;;7.82;0.50;;;;;;;;;;5325403;28;20072;-67
2022/09/15 14:00:48;;;;;;;3.58;0.30;;;;;;;;;;5325025;28;20023;-68
2022/09/15 14:03:26;;;;;;;5.80;0.30;;;;;;;;;;5325873;28;20110;-67
2022/09/15 14:05:57;;;;;;;5.18;0.47;;;;;;;;;;5325202;28;20008;-67
2022/09/15 14:08:31;;;;;;;4.28;0.57;;;;;;;;;;5325253;28;20104;-69
2022/09/15 14:11:07;;;;;;;3.35;0.30;;;;;;;;;;5324926;28;20374;-69
2022/09/15 14:13:41;;;;;;;4.13;0.20;;;;;;;;;;5325077;28;20012;-69
2022/09/15 14:16:23;;;;;;;4.05;0.28;;;;;;;;;;5325174;28;20430;-70
2022/09/15 14:18:56;;;;;;;6.57;0.30;;;;;;;;;;5324772;28;20111;-70
2022/09/15 14:21:31;;;;;;;4.45;0.60;;;;;;;;;;5325312;28;20030;-68
2022/09/15 14:24:04;;;;;;;3.72;0.22;;;;;;;;;;5325541;28;20016;-68
2022/09/15 14:26:36;;;;;;;3.83;0.22;;;;;;;;;;5323713;28;20072;-68
2022/09/15 14:29:14;;;;;;;6.15;0.73;;;;;;;;;;5324885;28;20463;-68
2022/09/15 14:31:45;;;;;;;3.28;0.30;;;;;;;;;;5324990;28;20461;-68
2022/09/15 14:34:24;;;;;;;3.60;0.30;;;;;;;;;;5324137;28;20077;-68
2022/09/15 14:36:59;;;;;;;3.95;0.25;;;;;;;;;;5324887;28;20098;-68
2022/09/15 14:39:32;;;;;;;3.03;0.30;;;;;;;;;;5323941;28;20042;-67
2022/09/15 14:42:21;;;;;;;3.72;0.30;;;;;;;;;;5320568;28;20020;-68
2022/09/15 14:44:52;;;;;;;3.72;0.30;;;;;;;;;;5323842;28;20064;-68
2022/09/15 14:47:27;;;;;;;3.22;0.30;;;;;;;;;;5323494;28;20441;-67
2022/09/15 14:50:18;;;;;;;2.70;0.30;;;;;;;;;;5325089;28;20020;-67
2022/09/15 14:52:57;;;;;;;6.00;0.73;;;;;;;;;;5324240;28;20019;-67
2022/09/15 14:55:46;;;;;;;2.15;0.20;;;;;;;;;;5323357;28;20122;-67
2022/09/15 14:58:23;;;;;;;3.25;0.38;;;;;;;;;;5324794;28;20492;-67
2022/09/15 15:01:02;;;;;;;4.00;0.30;;;;;;;;;;5323612;27;20012;-67
2022/09/15 15:04:04;;;;;;;3.88;0.30;;;;;;;;;;5324136;28;20019;-67
2022/09/15 15:06:56;;;;;;;3.47;0.40;;;;;;;;;;5311007;27;20043;-67
2022/09/15 15:09:42;;;;;;;4.03;0.60;;;;;;;;;;5322515;28;20028;-67
2022/09/15 15:12:24;;;;;;;1.92;0.22;;;;;;;;;;5324213;28;20019;-66
2022/09/15 15:14:56;;;;;;;4.68;0.30;;;;;;;;;;5323527;27;20084;-67
2022/09/15 15:17:32;;;;;;;4.50;0.30;;;;;;;;;;5324108;28;20027;-67